sensor_id;sensor_type;location;lat;lon;timestamp;temperature;humidity
29813;DHT22;16707;48.106;11.548;2022-07-05T00:02:10;18.00;99.90
29813;DHT22;16707;48.106;11.548;2022-07-05T00:04:37;18.00;99.90
29813;DHT22;16707;48.106;11.548;2022-07-05T00:07:09;17.80;99.90
29813;DHT22;16707;48.106;11.548;2022-07-05T00:09:51;17.80;99.90
29813;DHT22;16707;48.106;11.548;2022-07-05T00:12:26;17.80;99.90
29813;DHT22;16707;48.106;11.548;2022-07-05T00:14:56;17.80;99.90
29813;DHT22;16707;48.106;11.548;2022-07-05T00:17:23;17.80;99.90
29813;DHT22;16707;48.106;11.548;2022-07-05T00:19:50;17.80;99.90
29813;DHT22;16707;48.106;11.548;2022-07-05T00:22:18;17.80;99.90
29813;DHT22;16707;48.106;11.548;2022-07-05T00:24:45;17.80;99.90
29813;DHT22;16707;48.106;11.548;2022-07-05T00:27:12;17.80;99.90
29813;DHT22;16707;48.106;11.548;2022-07-05T00:29:41;17.80;99.90
29813;DHT22;16707;48.106;11.548;2022-07-05T00:32:09;17.70;99.90
29813;DHT22;16707;48.106;11.548;2022-07-05T00:34:36;17.70;99.90
29813;DHT22;16707;48.106;11.548;2022-07-05T00:37:03;17.70;99.90
29813;DHT22;16707;48.106;11.548;2022-07-05T00:39:36;17.60;99.90
29813;DHT22;16707;48.106;11.548;2022-07-05T00:42:03;17.70;99.90
29813;DHT22;16707;48.106;11.548;2022-07-05T00:44:33;17.70;99.90
29813;DHT22;16707;48.106;11.548;2022-07-05T00:47:03;17.70;99.90
29813;DHT22;16707;48.106;11.548;2022-07-05T00:49:32;17.80;99.90
29813;DHT22;16707;48.106;11.548;2022-07-05T00:52:01;17.80;99.90
29813;DHT22;16707;48.106;11.548;2022-07-05T00:54:28;17.80;99.90
29813;DHT22;16707;48.106;11.548;2022-07-05T00:57:23;17.80;99.90
29813;DHT22;16707;48.106;11.548;2022-07-05T00:59:52;17.90;99.90
29813;DHT22;16707;48.106;11.548;2022-07-05T01:02:24;17.80;99.90
29813;DHT22;16707;48.106;11.548;2022-07-05T01:04:55;17.80;99.90
29813;DHT22;16707;48.106;11.548;2022-07-05T01:07:23;17.80;99.90
29813;DHT22;16707;48.106;11.548;2022-07-05T01:09:51;17.80;99.90
29813;DHT22;16707;48.106;11.548;2022-07-05T01:12:22;17.70;99.90
29813;DHT22;16707;48.106;11.548;2022-07-05T01:14:52;17.70;99.90
29813;DHT22;16707;48.106;11.548;2022-07-05T01:17:25;17.70;99.90
29813;DHT22;16707;48.106;11.548;2022-07-05T01:19:53;17.80;99.90
29813;DHT22;16707;48.106;11.548;2022-07-05T01:22:26;17.80;99.90
29813;DHT22;16707;48.106;11.548;2022-07-05T01:25:08;17.90;99.90
29813;DHT22;16707;48.106;11.548;2022-07-05T01:27:42;17.80;99.90
29813;DHT22;16707;48.106;11.548;2022-07-05T01:30:09;17.70;99.90
29813;DHT22;16707;48.106;11.548;2022-07-05T01:32:37;17.60;99.90
29813;DHT22;16707;48.106;11.548;2022-07-05T01:35:05;17.40;99.90
29813;DHT22;16707;48.106;11.548;2022-07-05T01:37:48;17.40;99.90
29813;DHT22;16707;48.106;11.548;2022-07-05T01:40:16;17.30;99.90
29813;DHT22;16707;48.106;11.548;2022-07-05T01:42:44;17.30;99.90
29813;DHT22;16707;48.106;11.548;2022-07-05T01:45:14;17.30;99.90
29813;DHT22;16707;48.106;11.548;2022-07-05T01:48:04;17.30;99.90
29813;DHT22;16707;48.106;11.548;2022-07-05T01:50:40;17.30;99.90
29813;DHT22;16707;48.106;11.548;2022-07-05T01:53:11;17.30;99.90
29813;DHT22;16707;48.106;11.548;2022-07-05T01:55:41;17.30;99.90
29813;DHT22;16707;48.106;11.548;2022-07-05T01:58:08;17.30;99.90
29813;DHT22;16707;48.106;11.548;2022-07-05T02:00:45;17.30;99.90
29813;DHT22;16707;48.106;11.548;2022-07-05T02:03:14;17.30;99.90
29813;DHT22;16707;48.106;11.548;2022-07-05T02:05:45;17.30;99.90
29813;DHT22;16707;48.106;11.548;2022-07-05T02:08:20;17.30;99.90
29813;DHT22;16707;48.106;11.548;2022-07-05T02:10:50;17.30;99.90
29813;DHT22;16707;48.106;11.548;2022-07-05T02:13:20;17.30;99.90
29813;DHT22;16707;48.106;11.548;2022-07-05T02:15:53;17.30;99.90
29813;DHT22;16707;48.106;11.548;2022-07-05T02:18:20;17.30;99.90
29813;DHT22;16707;48.106;11.548;2022-07-05T02:20:50;17.30;99.90
29813;DHT22;16707;48.106;11.548;2022-07-05T02:23:19;17.20;99.90
29813;DHT22;16707;48.106;11.548;2022-07-05T02:25:46;17.20;99.90
29813;DHT22;16707;48.106;11.548;2022-07-05T02:28:14;17.20;99.90
29813;DHT22;16707;48.106;11.548;2022-07-05T02:30:43;17.20;99.90
29813;DHT22;16707;48.106;11.548;2022-07-05T02:33:16;17.20;99.90
29813;DHT22;16707;48.106;11.548;2022-07-05T02:35:43;17.20;99.90
29813;DHT22;16707;48.106;11.548;2022-07-05T02:38:11;17.20;99.90
29813;DHT22;16707;48.106;11.548;2022-07-05T02:40:47;17.10;99.90
29813;DHT22;16707;48.106;11.548;2022-07-05T02:43:14;17.20;99.90
29813;DHT22;16707;48.106;11.548;2022-07-05T02:45:41;17.20;99.90
29813;DHT22;16707;48.106;11.548;2022-07-05T02:48:08;17.20;99.90
29813;DHT22;16707;48.106;11.548;2022-07-05T02:50:36;17.20;99.90
29813;DHT22;16707;48.106;11.548;2022-07-05T02:53:03;17.10;99.90
29813;DHT22;16707;48.106;11.548;2022-07-05T02:55:30;16.90;99.90
29813;DHT22;16707;48.106;11.548;2022-07-05T02:58:02;16.80;99.90
29813;DHT22;16707;48.106;11.548;2022-07-05T03:00:33;16.70;99.90
29813;DHT22;16707;48.106;11.548;2022-07-05T03:03:01;16.70;99.90
29813;DHT22;16707;48.106;11.548;2022-07-05T03:05:28;16.70;99.90
29813;DHT22;16707;48.106;11.548;2022-07-05T03:07:55;16.70;99.90
29813;DHT22;16707;48.106;11.548;2022-07-05T03:10:23;16.70;99.90
29813;DHT22;16707;48.106;11.548;2022-07-05T03:12:51;16.70;99.90
29813;DHT22;16707;48.106;11.548;2022-07-05T03:15:22;16.80;99.90
29813;DHT22;16707;48.106;11.548;2022-07-05T03:17:55;16.70;99.90
29813;DHT22;16707;48.106;11.548;2022-07-05T03:20:24;16.80;99.90
29813;DHT22;16707;48.106;11.548;2022-07-05T03:22:51;16.80;99.90
29813;DHT22;16707;48.106;11.548;2022-07-05T03:25:18;16.80;99.90
29813;DHT22;16707;48.106;11.548;2022-07-05T03:27:48;16.70;99.90
29813;DHT22;16707;48.106;11.548;2022-07-05T03:30:27;16.70;99.90
29813;DHT22;16707;48.106;11.548;2022-07-05T03:32:54;16.80;99.90
29813;DHT22;16707;48.106;11.548;2022-07-05T03:35:22;16.70;99.90
29813;DHT22;16707;48.106;11.548;2022-07-05T03:37:49;16.70;99.90
29813;DHT22;16707;48.106;11.548;2022-07-05T03:40:19;16.70;99.90
29813;DHT22;16707;48.106;11.548;2022-07-05T03:42:46;16.70;99.90
29813;DHT22;16707;48.106;11.548;2022-07-05T03:45:13;16.60;99.90
29813;DHT22;16707;48.106;11.548;2022-07-05T03:47:42;16.60;99.90
29813;DHT22;16707;48.106;11.548;2022-07-05T03:50:09;16.50;99.90
29813;DHT22;16707;48.106;11.548;2022-07-05T03:52:37;16.40;99.90
29813;DHT22;16707;48.106;11.548;2022-07-05T03:55:11;16.40;99.90
29813;DHT22;16707;48.106;11.548;2022-07-05T03:57:38;16.40;99.90
29813;DHT22;16707;48.106;11.548;2022-07-05T04:00:07;16.40;99.90
29813;DHT22;16707;48.106;11.548;2022-07-05T04:02:42;16.40;99.90
29813;DHT22;16707;48.106;11.548;2022-07-05T04:05:19;16.40;99.90
29813;DHT22;16707;48.106;11.548;2022-07-05T04:07:49;16.40;99.90
29813;DHT22;16707;48.106;11.548;2022-07-05T04:10:20;16.50;99.90
29813;DHT22;16707;48.106;11.548;2022-07-05T04:12:52;16.50;99.90
29813;DHT22;16707;48.106;11.548;2022-07-05T04:15:21;16.60;99.90
29813;DHT22;16707;48.106;11.548;2022-07-05T04:17:52;16.60;99.90
29813;DHT22;16707;48.106;11.548;2022-07-05T04:20:21;16.70;99.90
29813;DHT22;16707;48.106;11.548;2022-07-05T04:22:50;16.90;99.90
29813;DHT22;16707;48.106;11.548;2022-07-05T04:25:21;17.00;99.90
29813;DHT22;16707;48.106;11.548;2022-07-05T04:27:50;17.00;99.90
29813;DHT22;16707;48.106;11.548;2022-07-05T04:30:21;17.10;99.90
29813;DHT22;16707;48.106;11.548;2022-07-05T04:32:51;17.20;99.90
29813;DHT22;16707;48.106;11.548;2022-07-05T04:35:19;17.30;99.90
29813;DHT22;16707;48.106;11.548;2022-07-05T04:37:46;17.60;99.90
29813;DHT22;16707;48.106;11.548;2022-07-05T04:40:15;17.70;99.90
29813;DHT22;16707;48.106;11.548;2022-07-05T04:42:45;17.80;99.90
29813;DHT22;16707;48.106;11.548;2022-07-05T04:45:12;18.00;99.90
29813;DHT22;16707;48.106;11.548;2022-07-05T04:47:43;18.20;99.90
29813;DHT22;16707;48.106;11.548;2022-07-05T04:50:12;18.20;99.90
29813;DHT22;16707;48.106;11.548;2022-07-05T04:52:39;18.30;99.90
29813;DHT22;16707;48.106;11.548;2022-07-05T04:55:07;18.30;99.90
29813;DHT22;16707;48.106;11.548;2022-07-05T04:57:38;18.20;99.90
29813;DHT22;16707;48.106;11.548;2022-07-05T05:00:06;18.40;99.90
29813;DHT22;16707;48.106;11.548;2022-07-05T05:02:34;18.50;99.90
29813;DHT22;16707;48.106;11.548;2022-07-05T05:05:01;18.50;99.90
29813;DHT22;16707;48.106;11.548;2022-07-05T05:07:32;18.60;99.90
29813;DHT22;16707;48.106;11.548;2022-07-05T05:10:11;18.60;99.90
29813;DHT22;16707;48.106;11.548;2022-07-05T05:12:39;18.60;99.90
29813;DHT22;16707;48.106;11.548;2022-07-05T05:15:09;18.90;99.90
29813;DHT22;16707;48.106;11.548;2022-07-05T05:17:37;19.80;99.90
29813;DHT22;16707;48.106;11.548;2022-07-05T05:20:11;19.90;99.90
29813;DHT22;16707;48.106;11.548;2022-07-05T05:22:41;24.40;99.90
29813;DHT22;16707;48.106;11.548;2022-07-05T05:27:40;28.30;69.90
29813;DHT22;16707;48.106;11.548;2022-07-05T05:30:12;28.70;66.00
29813;DHT22;16707;48.106;11.548;2022-07-05T05:32:43;30.50;61.80
29813;DHT22;16707;48.106;11.548;2022-07-05T05:35:11;29.70;59.60
29813;DHT22;16707;48.106;11.548;2022-07-05T05:37:51;29.10;62.00
29813;DHT22;16707;48.106;11.548;2022-07-05T05:40:20;29.90;59.70
29813;DHT22;16707;48.106;11.548;2022-07-05T05:42:48;31.90;55.30
29813;DHT22;16707;48.106;11.548;2022-07-05T05:45:17;32.70;52.70
29813;DHT22;16707;48.106;11.548;2022-07-05T05:47:49;33.90;51.10
29813;DHT22;16707;48.106;11.548;2022-07-05T05:50:21;33.50;50.20
29813;DHT22;16707;48.106;11.548;2022-07-05T05:52:50;33.60;50.50
29813;DHT22;16707;48.106;11.548;2022-07-05T05:55:17;33.90;50.20
29813;DHT22;16707;48.106;11.548;2022-07-05T05:57:48;34.00;48.50
29813;DHT22;16707;48.106;11.548;2022-07-05T06:00:16;33.40;49.50
29813;DHT22;16707;48.106;11.548;2022-07-05T06:02:45;33.20;49.30
29813;DHT22;16707;48.106;11.548;2022-07-05T06:05:13;32.30;50.30
29813;DHT22;16707;48.106;11.548;2022-07-05T06:07:45;33.10;51.10
29813;DHT22;16707;48.106;11.548;2022-07-05T06:10:20;32.80;51.00
29813;DHT22;16707;48.106;11.548;2022-07-05T06:12:49;33.00;50.50
29813;DHT22;16707;48.106;11.548;2022-07-05T06:15:17;33.80;49.10
29813;DHT22;16707;48.106;11.548;2022-07-05T06:17:45;33.80;48.80
29813;DHT22;16707;48.106;11.548;2022-07-05T06:20:16;33.90;49.00
29813;DHT22;16707;48.106;11.548;2022-07-05T06:22:44;34.40;49.50
29813;DHT22;16707;48.106;11.548;2022-07-05T06:25:16;34.90;46.90
29813;DHT22;16707;48.106;11.548;2022-07-05T06:27:45;35.30;46.90
29813;DHT22;16707;48.106;11.548;2022-07-05T06:30:18;35.30;45.90
29813;DHT22;16707;48.106;11.548;2022-07-05T06:32:47;35.80;46.20
29813;DHT22;16707;48.106;11.548;2022-07-05T06:35:15;35.80;44.40
29813;DHT22;16707;48.106;11.548;2022-07-05T06:37:44;35.70;45.20
29813;DHT22;16707;48.106;11.548;2022-07-05T06:40:13;36.20;43.40
29813;DHT22;16707;48.106;11.548;2022-07-05T06:42:42;35.80;43.50
29813;DHT22;16707;48.106;11.548;2022-07-05T06:45:09;35.80;44.20
29813;DHT22;16707;48.106;11.548;2022-07-05T06:47:37;36.00;43.70
29813;DHT22;16707;48.106;11.548;2022-07-05T06:50:06;36.10;43.30
29813;DHT22;16707;48.106;11.548;2022-07-05T06:52:33;36.40;43.60
29813;DHT22;16707;48.106;11.548;2022-07-05T06:55:04;34.50;43.90
29813;DHT22;16707;48.106;11.548;2022-07-05T06:57:35;34.90;46.00
29813;DHT22;16707;48.106;11.548;2022-07-05T07:00:04;32.80;47.80
29813;DHT22;16707;48.106;11.548;2022-07-05T07:02:33;34.00;48.90
29813;DHT22;16707;48.106;11.548;2022-07-05T07:05:00;34.60;46.30
29813;DHT22;16707;48.106;11.548;2022-07-05T07:07:28;35.10;46.20
29813;DHT22;16707;48.106;11.548;2022-07-05T07:10:15;36.00;43.60
29813;DHT22;16707;48.106;11.548;2022-07-05T07:12:42;35.30;44.30
29813;DHT22;16707;48.106;11.548;2022-07-05T07:15:14;36.10;44.10
29813;DHT22;16707;48.106;11.548;2022-07-05T07:17:44;36.40;41.90
29813;DHT22;16707;48.106;11.548;2022-07-05T07:20:14;37.50;41.60
29813;DHT22;16707;48.106;11.548;2022-07-05T07:22:41;38.40;40.60
29813;DHT22;16707;48.106;11.548;2022-07-05T07:25:09;39.00;38.00
29813;DHT22;16707;48.106;11.548;2022-07-05T07:27:43;38.50;38.00
29813;DHT22;16707;48.106;11.548;2022-07-05T07:30:14;37.30;38.30
29813;DHT22;16707;48.106;11.548;2022-07-05T07:32:44;35.20;40.80
29813;DHT22;16707;48.106;11.548;2022-07-05T07:35:12;33.00;44.20
29813;DHT22;16707;48.106;11.548;2022-07-05T07:37:40;31.30;49.00
29813;DHT22;16707;48.106;11.548;2022-07-05T07:40:08;29.80;52.90
29813;DHT22;16707;48.106;11.548;2022-07-05T07:42:35;28.60;58.60
29813;DHT22;16707;48.106;11.548;2022-07-05T07:45:11;27.60;62.00
29813;DHT22;16707;48.106;11.548;2022-07-05T07:47:40;26.90;64.00
29813;DHT22;16707;48.106;11.548;2022-07-05T07:50:14;26.50;64.20
29813;DHT22;16707;48.106;11.548;2022-07-05T07:52:41;25.90;67.50
29813;DHT22;16707;48.106;11.548;2022-07-05T07:55:08;25.50;70.00
29813;DHT22;16707;48.106;11.548;2022-07-05T07:57:39;25.50;69.90
29813;DHT22;16707;48.106;11.548;2022-07-05T08:00:08;25.60;70.60
29813;DHT22;16707;48.106;11.548;2022-07-05T08:02:36;25.60;69.60
29813;DHT22;16707;48.106;11.548;2022-07-05T08:05:04;25.70;70.80
29813;DHT22;16707;48.106;11.548;2022-07-05T08:07:35;25.40;69.10
29813;DHT22;16707;48.106;11.548;2022-07-05T08:10:06;25.00;69.90
29813;DHT22;16707;48.106;11.548;2022-07-05T08:12:34;24.60;72.90
29813;DHT22;16707;48.106;11.548;2022-07-05T08:15:04;24.30;72.80
29813;DHT22;16707;48.106;11.548;2022-07-05T08:17:41;24.10;74.40
29813;DHT22;16707;48.106;11.548;2022-07-05T08:20:28;24.00;74.30
29813;DHT22;16707;48.106;11.548;2022-07-05T08:23:12;24.30;75.50
29813;DHT22;16707;48.106;11.548;2022-07-05T08:25:42;24.60;70.10
29813;DHT22;16707;48.106;11.548;2022-07-05T08:28:10;24.40;70.30
29813;DHT22;16707;48.106;11.548;2022-07-05T08:30:37;24.20;63.20
29813;DHT22;16707;48.106;11.548;2022-07-05T08:33:08;24.10;59.90
29813;DHT22;16707;48.106;11.548;2022-07-05T08:35:36;24.60;59.90
29813;DHT22;16707;48.106;11.548;2022-07-05T08:38:11;24.80;58.90
29813;DHT22;16707;48.106;11.548;2022-07-05T08:40:45;24.40;59.50
29813;DHT22;16707;48.106;11.548;2022-07-05T08:43:13;23.90;58.40
29813;DHT22;16707;48.106;11.548;2022-07-05T08:45:42;23.60;59.40
29813;DHT22;16707;48.106;11.548;2022-07-05T08:48:12;23.70;58.90
29813;DHT22;16707;48.106;11.548;2022-07-05T08:50:46;23.80;61.00
29813;DHT22;16707;48.106;11.548;2022-07-05T08:53:18;23.80;59.00
29813;DHT22;16707;48.106;11.548;2022-07-05T08:55:46;23.70;62.90
29813;DHT22;16707;48.106;11.548;2022-07-05T08:58:13;23.90;63.90
29813;DHT22;16707;48.106;11.548;2022-07-05T09:00:42;24.10;61.90
29813;DHT22;16707;48.106;11.548;2022-07-05T09:03:15;24.20;61.30
29813;DHT22;16707;48.106;11.548;2022-07-05T09:05:44;24.80;60.70
29813;DHT22;16707;48.106;11.548;2022-07-05T09:08:22;24.40;56.10
29813;DHT22;16707;48.106;11.548;2022-07-05T09:10:51;24.10;54.70
29813;DHT22;16707;48.106;11.548;2022-07-05T09:13:18;23.90;55.10
29813;DHT22;16707;48.106;11.548;2022-07-05T09:15:45;24.00;55.40
29813;DHT22;16707;48.106;11.548;2022-07-05T09:18:41;24.10;55.90
29813;DHT22;16707;48.106;11.548;2022-07-05T09:21:13;24.20;55.10
29813;DHT22;16707;48.106;11.548;2022-07-05T09:23:41;24.10;56.10
29813;DHT22;16707;48.106;11.548;2022-07-05T09:26:09;24.40;57.70
29813;DHT22;16707;48.106;11.548;2022-07-05T09:28:36;24.50;56.00
29813;DHT22;16707;48.106;11.548;2022-07-05T09:31:25;24.80;56.70
29813;DHT22;16707;48.106;11.548;2022-07-05T09:34:08;24.60;52.70
29813;DHT22;16707;48.106;11.548;2022-07-05T09:36:49;24.20;52.40
29813;DHT22;16707;48.106;11.548;2022-07-05T09:39:33;24.40;54.50
29813;DHT22;16707;48.106;11.548;2022-07-05T09:42:16;24.40;52.20
29813;DHT22;16707;48.106;11.548;2022-07-05T09:44:49;24.20;53.90
29813;DHT22;16707;48.106;11.548;2022-07-05T09:47:20;24.20;53.80
29813;DHT22;16707;48.106;11.548;2022-07-05T09:49:50;24.60;53.60
29813;DHT22;16707;48.106;11.548;2022-07-05T09:52:29;24.70;53.60
29813;DHT22;16707;48.106;11.548;2022-07-05T09:55:04;25.10;56.90
29813;DHT22;16707;48.106;11.548;2022-07-05T09:57:33;25.10;50.90
29813;DHT22;16707;48.106;11.548;2022-07-05T10:00:04;25.10;52.50
29813;DHT22;16707;48.106;11.548;2022-07-05T10:02:38;25.00;51.90
29813;DHT22;16707;48.106;11.548;2022-07-05T10:05:15;24.80;51.60
29813;DHT22;16707;48.106;11.548;2022-07-05T10:07:45;24.80;51.80
29813;DHT22;16707;48.106;11.548;2022-07-05T10:10:14;24.80;56.40
29813;DHT22;16707;48.106;11.548;2022-07-05T10:12:43;25.10;53.20
29813;DHT22;16707;48.106;11.548;2022-07-05T10:15:14;25.40;52.50
29813;DHT22;16707;48.106;11.548;2022-07-05T10:17:42;25.50;52.10
29813;DHT22;16707;48.106;11.548;2022-07-05T10:20:17;25.40;50.60
29813;DHT22;16707;48.106;11.548;2022-07-05T10:22:44;25.10;51.30
29813;DHT22;16707;48.106;11.548;2022-07-05T10:25:11;24.70;52.70
29813;DHT22;16707;48.106;11.548;2022-07-05T10:27:43;24.80;54.70
29813;DHT22;16707;48.106;11.548;2022-07-05T10:30:15;24.80;53.00
29813;DHT22;16707;48.106;11.548;2022-07-05T10:32:43;25.20;53.20
29813;DHT22;16707;48.106;11.548;2022-07-05T10:35:11;25.20;53.20
29813;DHT22;16707;48.106;11.548;2022-07-05T10:37:44;25.00;50.10
29813;DHT22;16707;48.106;11.548;2022-07-05T10:40:14;24.80;52.30
29813;DHT22;16707;48.106;11.548;2022-07-05T10:42:47;24.70;52.30
29813;DHT22;16707;48.106;11.548;2022-07-05T10:45:28;24.70;53.20
29813;DHT22;16707;48.106;11.548;2022-07-05T10:48:13;24.50;50.60
29813;DHT22;16707;48.106;11.548;2022-07-05T10:50:50;24.60;51.80
29813;DHT22;16707;48.106;11.548;2022-07-05T10:53:19;24.80;50.40
29813;DHT22;16707;48.106;11.548;2022-07-05T10:55:53;24.80;51.60
29813;DHT22;16707;48.106;11.548;2022-07-05T10:58:32;25.00;51.20
29813;DHT22;16707;48.106;11.548;2022-07-05T11:04:30;24.30;52.10
29813;DHT22;16707;48.106;11.548;2022-07-05T11:07:01;24.10;54.30
29813;DHT22;16707;48.106;11.548;2022-07-05T11:09:29;24.20;52.00
29813;DHT22;16707;48.106;11.548;2022-07-05T11:12:11;24.30;50.90
29813;DHT22;16707;48.106;11.548;2022-07-05T11:14:45;24.40;52.30
29813;DHT22;16707;48.106;11.548;2022-07-05T11:17:21;24.50;49.40
29813;DHT22;16707;48.106;11.548;2022-07-05T11:23:08;25.20;50.50
29813;DHT22;16707;48.106;11.548;2022-07-05T11:25:39;25.00;47.10
29813;DHT22;16707;48.106;11.548;2022-07-05T11:28:16;24.80;48.30
29813;DHT22;16707;48.106;11.548;2022-07-05T11:30:56;25.00;47.70
29813;DHT22;16707;48.106;11.548;2022-07-05T11:33:27;25.00;48.40
29813;DHT22;16707;48.106;11.548;2022-07-05T11:35:55;25.00;47.20
29813;DHT22;16707;48.106;11.548;2022-07-05T11:38:28;24.80;48.50
29813;DHT22;16707;48.106;11.548;2022-07-05T11:41:11;24.60;47.80
29813;DHT22;16707;48.106;11.548;2022-07-05T11:43:40;24.20;50.10
29813;DHT22;16707;48.106;11.548;2022-07-05T11:46:09;24.30;47.90
29813;DHT22;16707;48.106;11.548;2022-07-05T11:48:36;24.60;47.80
29813;DHT22;16707;48.106;11.548;2022-07-05T11:51:14;24.90;44.50
29813;DHT22;16707;48.106;11.548;2022-07-05T11:53:46;25.00;44.70
29813;DHT22;16707;48.106;11.548;2022-07-05T11:56:13;25.30;45.10
29813;DHT22;16707;48.106;11.548;2022-07-05T11:58:43;25.60;45.50
29813;DHT22;16707;48.106;11.548;2022-07-05T12:01:10;25.60;48.60
29813;DHT22;16707;48.106;11.548;2022-07-05T12:03:38;25.40;45.90
29813;DHT22;16707;48.106;11.548;2022-07-05T12:06:12;25.30;48.10
29813;DHT22;16707;48.106;11.548;2022-07-05T12:08:43;25.40;47.40
29813;DHT22;16707;48.106;11.548;2022-07-05T12:11:30;25.10;46.70
29813;DHT22;16707;48.106;11.548;2022-07-05T12:14:20;24.80;47.40
29813;DHT22;16707;48.106;11.548;2022-07-05T12:16:50;24.80;47.70
29813;DHT22;16707;48.106;11.548;2022-07-05T12:19:36;24.80;47.50
29813;DHT22;16707;48.106;11.548;2022-07-05T12:22:04;24.80;47.50
29813;DHT22;16707;48.106;11.548;2022-07-05T12:24:36;24.80;48.60
29813;DHT22;16707;48.106;11.548;2022-07-05T12:27:04;24.80;48.30
29813;DHT22;16707;48.106;11.548;2022-07-05T12:29:32;24.90;46.80
29813;DHT22;16707;48.106;11.548;2022-07-05T12:32:04;25.00;46.80
29813;DHT22;16707;48.106;11.548;2022-07-05T12:34:35;25.20;47.30
29813;DHT22;16707;48.106;11.548;2022-07-05T12:37:03;25.40;48.90
29813;DHT22;16707;48.106;11.548;2022-07-05T12:39:30;25.80;47.00
29813;DHT22;16707;48.106;11.548;2022-07-05T12:41:59;26.00;45.50
29813;DHT22;16707;48.106;11.548;2022-07-05T12:44:26;26.00;44.30
29813;DHT22;16707;48.106;11.548;2022-07-05T12:47:03;26.10;49.00
29813;DHT22;16707;48.106;11.548;2022-07-05T12:49:31;26.40;46.50
29813;DHT22;16707;48.106;11.548;2022-07-05T12:52:16;26.70;45.50
29813;DHT22;16707;48.106;11.548;2022-07-05T12:54:43;26.80;49.10
29813;DHT22;16707;48.106;11.548;2022-07-05T12:57:32;26.90;49.60
29813;DHT22;16707;48.106;11.548;2022-07-05T13:00:17;27.00;45.80
29813;DHT22;16707;48.106;11.548;2022-07-05T13:02:46;26.90;46.70
29813;DHT22;16707;48.106;11.548;2022-07-05T13:05:20;26.70;47.40
29813;DHT22;16707;48.106;11.548;2022-07-05T13:07:48;26.70;45.90
29813;DHT22;16707;48.106;11.548;2022-07-05T13:10:18;26.70;46.10
29813;DHT22;16707;48.106;11.548;2022-07-05T13:12:48;26.50;44.00
29813;DHT22;16707;48.106;11.548;2022-07-05T13:15:16;26.30;44.80
29813;DHT22;16707;48.106;11.548;2022-07-05T13:17:47;26.30;43.70
29813;DHT22;16707;48.106;11.548;2022-07-05T13:20:18;26.20;44.90
29813;DHT22;16707;48.106;11.548;2022-07-05T13:22:48;26.40;43.80
29813;DHT22;16707;48.106;11.548;2022-07-05T13:25:16;26.50;43.70
29813;DHT22;16707;48.106;11.548;2022-07-05T13:27:51;26.40;45.40
29813;DHT22;16707;48.106;11.548;2022-07-05T13:30:27;26.40;46.00
29813;DHT22;16707;48.106;11.548;2022-07-05T13:32:54;26.40;45.00
29813;DHT22;16707;48.106;11.548;2022-07-05T13:35:24;25.90;45.30
29813;DHT22;16707;48.106;11.548;2022-07-05T13:37:51;25.70;46.10
29813;DHT22;16707;48.106;11.548;2022-07-05T13:40:19;25.60;46.10
29813;DHT22;16707;48.106;11.548;2022-07-05T13:42:50;25.50;47.40
29813;DHT22;16707;48.106;11.548;2022-07-05T13:45:17;25.80;44.80
29813;DHT22;16707;48.106;11.548;2022-07-05T13:47:49;26.10;45.60
29813;DHT22;16707;48.106;11.548;2022-07-05T13:50:17;26.30;45.00
29813;DHT22;16707;48.106;11.548;2022-07-05T13:53:01;26.10;47.30
29813;DHT22;16707;48.106;11.548;2022-07-05T13:55:30;25.80;45.70
29813;DHT22;16707;48.106;11.548;2022-07-05T13:58:00;25.80;44.30
29813;DHT22;16707;48.106;11.548;2022-07-05T14:00:30;25.90;46.20
29813;DHT22;16707;48.106;11.548;2022-07-05T14:03:07;26.10;45.40
29813;DHT22;16707;48.106;11.548;2022-07-05T14:05:48;26.10;44.20
29813;DHT22;16707;48.106;11.548;2022-07-05T14:08:15;25.80;44.00
29813;DHT22;16707;48.106;11.548;2022-07-05T14:10:49;25.50;45.40
29813;DHT22;16707;48.106;11.548;2022-07-05T14:13:18;25.70;46.60
29813;DHT22;16707;48.106;11.548;2022-07-05T14:15:46;25.50;46.90
29813;DHT22;16707;48.106;11.548;2022-07-05T14:18:14;25.50;45.40
29813;DHT22;16707;48.106;11.548;2022-07-05T14:20:45;25.60;46.60
29813;DHT22;16707;48.106;11.548;2022-07-05T14:23:17;25.60;46.20
29813;DHT22;16707;48.106;11.548;2022-07-05T14:25:47;25.80;45.20
29813;DHT22;16707;48.106;11.548;2022-07-05T14:28:18;25.80;46.60
29813;DHT22;16707;48.106;11.548;2022-07-05T14:30:47;25.60;47.10
29813;DHT22;16707;48.106;11.548;2022-07-05T14:33:14;25.50;45.40
29813;DHT22;16707;48.106;11.548;2022-07-05T14:35:43;25.50;45.70
29813;DHT22;16707;48.106;11.548;2022-07-05T14:38:10;25.50;44.00
29813;DHT22;16707;48.106;11.548;2022-07-05T14:40:37;25.70;44.80
29813;DHT22;16707;48.106;11.548;2022-07-05T14:43:05;25.90;43.20
29813;DHT22;16707;48.106;11.548;2022-07-05T14:45:33;26.30;42.90
29813;DHT22;16707;48.106;11.548;2022-07-05T14:48:00;26.60;46.30
29813;DHT22;16707;48.106;11.548;2022-07-05T14:50:33;27.00;40.80
29813;DHT22;16707;48.106;11.548;2022-07-05T14:53:03;27.30;42.70
29813;DHT22;16707;48.106;11.548;2022-07-05T14:55:35;27.30;38.40
29813;DHT22;16707;48.106;11.548;2022-07-05T14:58:02;27.20;38.00
29813;DHT22;16707;48.106;11.548;2022-07-05T15:00:30;27.20;38.70
29813;DHT22;16707;48.106;11.548;2022-07-05T15:02:59;27.20;40.80
29813;DHT22;16707;48.106;11.548;2022-07-05T15:05:26;27.20;39.40
29813;DHT22;16707;48.106;11.548;2022-07-05T15:07:56;27.00;41.20
29813;DHT22;16707;48.106;11.548;2022-07-05T15:10:24;26.80;42.10
29813;DHT22;16707;48.106;11.548;2022-07-05T15:12:51;26.90;43.90
29813;DHT22;16707;48.106;11.548;2022-07-05T15:15:24;26.90;44.30
29813;DHT22;16707;48.106;11.548;2022-07-05T15:17:51;26.80;44.70
29813;DHT22;16707;48.106;11.548;2022-07-05T15:20:20;26.50;47.00
29813;DHT22;16707;48.106;11.548;2022-07-05T15:22:50;26.30;47.10
29813;DHT22;16707;48.106;11.548;2022-07-05T15:25:17;26.20;44.90
29813;DHT22;16707;48.106;11.548;2022-07-05T15:27:45;26.00;47.60
29813;DHT22;16707;48.106;11.548;2022-07-05T15:30:13;25.80;47.60
29813;DHT22;16707;48.106;11.548;2022-07-05T15:32:46;25.60;49.70
29813;DHT22;16707;48.106;11.548;2022-07-05T15:35:15;25.30;50.40
29813;DHT22;16707;48.106;11.548;2022-07-05T15:37:47;25.20;52.10
29813;DHT22;16707;48.106;11.548;2022-07-05T15:40:14;25.50;45.10
29813;DHT22;16707;48.106;11.548;2022-07-05T15:42:42;25.50;45.30
29813;DHT22;16707;48.106;11.548;2022-07-05T15:45:10;25.50;43.90
29813;DHT22;16707;48.106;11.548;2022-07-05T15:47:40;25.20;45.20